Baltica — 9HA2607 — position and weather

sailwx.info

Track history (hours):
 
Tides and Currents Weather Stations Pressure Air Temp Water Temp Dewpoint Dewpoint Depression Visibility Wind Speed Wind Dir Waves Ship Positions

Baltica

Last reported at 2015-Apr-01 04:33 UTC. Time now 2015-Apr-01 05:54 UTC.
Position N 51°49' E 003°16'.

Length 157 m; draft 7.7 m.

Type: Ship (hazmat cat A). MMSI: 215013000.

Date/timePositionNaut miles runAvg speedWind from/ knotsBaromVisibWave heightAir tempDewpointWater temp
2015-Apr-01 04:33N 51°49' E 003°16'8 8.2
2015-Apr-01 03:31N 51°57' E 003°20'128 8.3
2015-Mar-31 12:06N 53°56' E 004°38'7 4.3
2015-Mar-31 10:33N 53°57' E 004°49'8 7.5
2015-Mar-31 09:32N 54°04' E 004°55'9 9.4
2015-Mar-31 08:32N 54°12' E 005°03'28412.9
2015-Mar-30 10:33N 57°48' E 010°33'1413.9
2015-Mar-30 09:33N 57°43' E 010°57'1615.8
2015-Mar-30 08:33N 57°32' E 011°18'1515.5
2015-Mar-30 07:33N 57°19' E 011°33'1616.3
2015-Mar-30 06:33N 57°03' E 011°44'1616.5
2015-Mar-30 05:33N 56°48' E 011°53'1615.9
2015-Mar-30 04:33N 56°33' E 011°42'11414.1
2015-Mar-29 20:32N 54°43' E 010°53'1616.0
2015-Mar-29 19:34N 54°35' E 011°16'1515.3
2015-Mar-29 18:33N 54°23' E 011°30'1413.8
2015-Mar-29 17:33N 54°10' E 011°21'12 0.4
2015-Mar-28 11:10N 54°04' E 011°03'1015.7
2015-Mar-28 10:30N 54°10' E 011°17'1515.6
2015-Mar-28 09:33N 54°18' E 011°38'1515.4
2015-Mar-28 08:33N 54°26' E 012°01'1413.2
2015-Mar-28 07:32N 54°36' E 012°16'1515.2
2015-Mar-28 06:33N 54°45' E 012°36'1515.2
2015-Mar-28 05:34N 54°51' E 013°01'1615.8
2015-Mar-28 04:33N 54°56' E 013°27'1615.6
2015-Mar-28 03:33N 55°02' E 013°52'1615.6
2015-Mar-28 02:33N 55°12' E 014°13'1716.0
2015-Mar-28 01:30N 55°25' E 014°32'1515.9
2015-Mar-28 00:34N 55°32' E 014°55'1615.9
2015-Mar-27 23:34N 55°41' E 015°19'10615.1
2015-Mar-27 16:32N 57°02' E 017°22'1616.2
2015-Mar-27 15:33N 57°17' E 017°33'  
Track history (hours):
 
Tides and Currents Weather Stations Pressure Air Temp Water Temp Dewpoint Dewpoint Depression Visibility Wind Speed Wind Dir Waves Ship Positions

Baltica

Last reported at 2015-Apr-01 04:33 UTC. Time now 2015-Apr-01 05:54 UTC.
Position N 51°49' E 003°16'.

Length 157 m; draft 7.7 m.

Type: Ship (hazmat cat A). MMSI: 215013000.

Date/timePositionNaut miles runAvg speedWind from/ knotsBaromVisibWave heightAir tempDewpointWater temp
2015-Apr-01 04:33N 51°49' E 003°16'8 8.2
2015-Apr-01 03:31N 51°57' E 003°20'128 8.3
2015-Mar-31 12:06N 53°56' E 004°38'7 4.3
2015-Mar-31 10:33N 53°57' E 004°49'8 7.5
2015-Mar-31 09:32N 54°04' E 004°55'9 9.4
2015-Mar-31 08:32N 54°12' E 005°03'28412.9
2015-Mar-30 10:33N 57°48' E 010°33'1413.9
2015-Mar-30 09:33N 57°43' E 010°57'1615.8
2015-Mar-30 08:33N 57°32' E 011°18'1515.5
2015-Mar-30 07:33N 57°19' E 011°33'1616.3
2015-Mar-30 06:33N 57°03' E 011°44'1616.5
2015-Mar-30 05:33N 56°48' E 011°53'1615.9
2015-Mar-30 04:33N 56°33' E 011°42'11414.1
2015-Mar-29 20:32N 54°43' E 010°53'1616.0
2015-Mar-29 19:34N 54°35' E 011°16'1515.3
2015-Mar-29 18:33N 54°23' E 011°30'1413.8
2015-Mar-29 17:33N 54°10' E 011°21'12 0.4
2015-Mar-28 11:10N 54°04' E 011°03'1015.7
2015-Mar-28 10:30N 54°10' E 011°17'1515.6
2015-Mar-28 09:33N 54°18' E 011°38'1515.4
2015-Mar-28 08:33N 54°26' E 012°01'1413.2
2015-Mar-28 07:32N 54°36' E 012°16'1515.2
2015-Mar-28 06:33N 54°45' E 012°36'1515.2
2015-Mar-28 05:34N 54°51' E 013°01'1615.8
2015-Mar-28 04:33N 54°56' E 013°27'1615.6
2015-Mar-28 03:33N 55°02' E 013°52'1615.6
2015-Mar-28 02:33N 55°12' E 014°13'1716.0
2015-Mar-28 01:30N 55°25' E 014°32'1515.9
2015-Mar-28 00:34N 55°32' E 014°55'1615.9
2015-Mar-27 23:34N 55°41' E 015°19'10615.1
2015-Mar-27 16:32N 57°02' E 017°22'1616.2
2015-Mar-27 15:33N 57°17' E 017°33'  

Dump ship's entire track history